createdAt,value
2023-01-26T00:00:47.877Z,716.00
2023-01-26T00:01:47.766Z,698.00
2023-01-26T00:02:47.751Z,730.00
2023-01-26T00:03:47.670Z,716.00
2023-01-26T00:04:47.592Z,726.00
2023-01-26T00:05:47.556Z,719.00
2023-01-26T00:06:48.072Z,723.00
2023-01-26T00:07:47.423Z,716.00
2023-01-26T00:08:47.377Z,730.00
2023-01-26T00:09:47.316Z,723.00
2023-01-26T00:10:47.321Z,717.00
2023-01-26T00:11:47.249Z,709.00
2023-01-26T00:12:47.193Z,723.00
2023-01-26T00:13:47.139Z,736.00
2023-01-26T00:14:47.034Z,707.00
2023-01-26T00:15:47.054Z,720.00
2023-01-26T00:16:46.950Z,717.00
2023-01-26T00:17:46.875Z,724.00
2023-01-26T00:18:46.871Z,714.00
2023-01-26T00:19:46.756Z,730.00
2023-01-26T00:20:46.745Z,724.00
2023-01-26T00:21:46.630Z,725.00
2023-01-26T00:22:46.567Z,711.00
2023-01-26T00:23:46.598Z,717.00
2023-01-26T00:24:46.500Z,726.00
2023-01-26T00:25:46.435Z,722.00
2023-01-26T00:26:46.400Z,728.00
2023-01-26T00:27:46.363Z,729.00
2023-01-26T00:28:46.300Z,726.00
2023-01-26T00:29:46.289Z,719.00
2023-01-26T00:30:46.273Z,742.00
2023-01-26T00:31:46.627Z,726.00
2023-01-26T00:32:46.131Z,730.00
2023-01-26T00:33:46.071Z,726.00
2023-01-26T00:34:46.064Z,721.00
2023-01-26T00:35:45.966Z,732.00
2023-01-26T00:36:45.952Z,741.00
2023-01-26T00:37:45.940Z,724.00
2023-01-26T00:38:45.842Z,728.00
2023-01-26T00:39:45.773Z,733.00
2023-01-26T00:40:45.748Z,732.00
2023-01-26T00:41:45.674Z,722.00
2023-01-26T00:42:45.602Z,716.00
2023-01-26T00:43:45.563Z,723.00
2023-01-26T00:44:45.559Z,730.00
2023-01-26T00:45:45.511Z,719.00
2023-01-26T00:46:45.498Z,733.00
2023-01-26T00:47:45.389Z,724.00
2023-01-26T00:48:45.400Z,731.00
2023-01-26T00:49:45.297Z,735.00
2023-01-26T00:50:45.249Z,746.00
2023-01-26T00:51:45.237Z,724.00
2023-01-26T00:52:45.183Z,724.00
2023-01-26T00:53:45.145Z,736.00
2023-01-26T00:54:45.075Z,731.00
2023-01-26T00:55:45.045Z,735.00
2023-01-26T00:56:44.989Z,739.00
2023-01-26T00:57:44.964Z,733.00
2023-01-26T00:58:44.912Z,741.00
2023-01-26T00:59:44.817Z,725.00
2023-01-26T01:00:44.811Z,736.00
2023-01-26T01:01:44.776Z,735.00
2023-01-26T01:02:44.688Z,731.00
2023-01-26T01:03:44.616Z,733.00
2023-01-26T01:13:44.058Z,735.00
2023-01-26T01:14:44.005Z,725.00
2023-01-26T01:15:43.942Z,734.00
2023-01-26T01:16:43.948Z,751.00
2023-01-26T01:17:43.905Z,742.00
2023-01-26T01:18:43.841Z,735.00
2023-01-26T01:19:43.774Z,735.00
2023-01-26T01:20:43.771Z,736.00
2023-01-26T01:21:43.727Z,747.00
2023-01-26T01:22:43.693Z,745.00
2023-01-26T01:23:43.629Z,738.00
2023-01-26T01:24:43.592Z,736.00
2023-01-26T01:25:43.546Z,742.00
2023-01-26T01:26:43.523Z,745.00
2023-01-26T01:27:43.479Z,744.00
2023-01-26T01:28:43.403Z,735.00
2023-01-26T01:29:43.425Z,745.00
2023-01-26T01:30:43.383Z,731.00
2023-01-26T01:31:43.416Z,748.00
2023-01-26T01:32:43.282Z,744.00
2023-01-26T01:33:43.267Z,750.00
2023-01-26T01:34:43.191Z,751.00
2023-01-26T01:35:43.130Z,731.00
2023-01-26T01:36:43.096Z,745.00
2023-01-26T01:37:43.056Z,751.00
2023-01-26T01:38:42.991Z,738.00
2023-01-26T01:39:42.949Z,742.00
2023-01-26T01:40:42.913Z,744.00
2023-01-26T01:41:42.909Z,748.00
2023-01-26T01:42:42.851Z,751.00
2023-01-26T01:43:42.802Z,746.00
2023-01-26T01:44:42.733Z,746.00
2023-01-26T01:45:42.717Z,739.00
2023-01-26T01:46:42.758Z,740.00
2023-01-26T01:47:42.597Z,735.00
2023-01-26T01:48:42.602Z,751.00
2023-01-26T01:49:42.543Z,754.00
2023-01-26T01:50:42.482Z,749.00
2023-01-26T01:51:42.468Z,747.00
2023-01-26T01:52:42.404Z,757.00
2023-01-26T01:53:42.352Z,732.00
2023-01-26T01:54:42.338Z,751.00
2023-01-26T01:55:42.272Z,755.00
2023-01-26T01:56:42.254Z,757.00
2023-01-26T01:57:42.175Z,758.00
2023-01-26T01:58:42.157Z,758.00
2023-01-26T01:59:42.091Z,752.00
2023-01-26T02:00:42.096Z,763.00
2023-01-26T02:01:42.092Z,770.00
2023-01-26T02:02:42.005Z,764.00
2023-01-26T02:03:41.940Z,762.00
2023-01-26T02:04:41.887Z,772.00
2023-01-26T02:05:41.862Z,774.00
2023-01-26T02:06:41.817Z,776.00
2023-01-26T02:07:41.797Z,777.00
2023-01-26T02:08:41.719Z,781.00
2023-01-26T02:09:41.687Z,777.00
2023-01-26T02:10:41.625Z,768.00
2023-01-26T02:11:41.590Z,776.00
2023-01-26T02:12:41.581Z,784.00
2023-01-26T02:13:41.502Z,773.00
2023-01-26T02:14:41.449Z,788.00
2023-01-26T02:15:41.422Z,792.00
2023-01-26T02:16:41.396Z,791.00
2023-01-26T02:17:41.283Z,784.00
2023-01-26T02:18:41.283Z,784.00
2023-01-26T02:19:41.195Z,808.00
2023-01-26T02:20:41.125Z,786.00
2023-01-26T02:21:41.115Z,779.00
2023-01-26T02:22:41.055Z,799.00
2023-01-26T02:23:41.002Z,813.00
2023-01-26T02:24:40.926Z,816.00
2023-01-26T02:25:40.904Z,822.00
2023-01-26T02:26:40.843Z,822.00
2023-01-26T02:27:40.820Z,814.00
2023-01-26T02:28:40.772Z,822.00
2023-01-26T02:29:40.693Z,811.00
2023-01-26T02:30:40.655Z,826.00
2023-01-26T02:31:40.651Z,829.00
2023-01-26T02:32:40.538Z,804.00
2023-01-26T02:33:40.515Z,823.00
2023-01-26T02:34:40.470Z,826.00
2023-01-26T02:35:40.382Z,835.00
2023-01-26T02:36:40.365Z,820.00
2023-01-26T02:37:40.341Z,827.00
2023-01-26T02:38:40.264Z,834.00
2023-01-26T02:39:40.211Z,840.00
2023-01-26T02:40:40.157Z,839.00
2023-01-26T02:41:40.137Z,834.00
2023-01-26T02:42:40.103Z,829.00
2023-01-26T02:43:40.034Z,842.00
2023-01-26T02:44:39.947Z,837.00
2023-01-26T02:45:39.882Z,838.00
2023-01-26T02:46:39.916Z,840.00
2023-01-26T02:47:39.792Z,842.00
2023-01-26T02:48:39.744Z,848.00
2023-01-26T02:49:39.668Z,840.00
2023-01-26T02:50:39.598Z,851.00
2023-01-26T02:51:39.588Z,849.00
2023-01-26T02:52:39.537Z,842.00
2023-01-26T02:53:39.428Z,852.00
2023-01-26T02:54:39.403Z,846.00
2023-01-26T02:55:39.304Z,856.00
2023-01-26T02:56:39.229Z,839.00
2023-01-26T02:57:39.189Z,854.00
2023-01-26T02:58:39.106Z,840.00
2023-01-26T02:59:39.064Z,848.00
2023-01-26T03:00:39.047Z,846.00
2023-01-26T03:01:38.951Z,851.00
2023-01-26T03:02:38.918Z,851.00
2023-01-26T03:03:38.822Z,841.00
2023-01-26T03:04:38.710Z,853.00
2023-01-26T03:05:38.646Z,859.00
2023-01-26T03:06:38.625Z,855.00
2023-01-26T03:07:38.547Z,854.00
2023-01-26T03:08:38.521Z,850.00
2023-01-26T03:09:38.405Z,835.00
2023-01-26T03:10:38.414Z,860.00
2023-01-26T03:11:38.265Z,863.00
2023-01-26T03:12:38.158Z,835.00
2023-01-26T03:13:38.089Z,853.00
2023-01-26T03:14:38.019Z,860.00
2023-01-26T03:15:38.008Z,853.00
2023-01-26T03:16:37.911Z,858.00
2023-01-26T03:17:38.151Z,852.00
2023-01-26T03:18:37.777Z,847.00
2023-01-26T03:19:37.706Z,858.00
2023-01-26T03:20:37.622Z,855.00
2023-01-26T03:21:37.546Z,849.00
2023-01-26T03:22:37.464Z,848.00
2023-01-26T03:23:37.403Z,858.00
2023-01-26T03:24:37.324Z,849.00
2023-01-26T03:25:37.264Z,852.00
2023-01-26T03:26:37.187Z,862.00
2023-01-26T03:27:37.123Z,852.00
2023-01-26T03:28:37.046Z,861.00
2023-01-26T03:29:36.964Z,853.00
2023-01-26T03:30:36.973Z,864.00
2023-01-26T03:31:36.847Z,857.00
2023-01-26T03:32:36.780Z,859.00
2023-01-26T03:33:36.765Z,863.00
2023-01-26T03:34:36.629Z,851.00
2023-01-26T03:35:36.568Z,853.00
2023-01-26T03:36:36.502Z,859.00
2023-01-26T03:37:36.412Z,860.00
2023-01-26T03:38:36.351Z,852.00
2023-01-26T03:39:36.268Z,857.00
2023-01-26T03:40:36.245Z,853.00
2023-01-26T03:41:36.123Z,856.00
2023-01-26T03:42:36.075Z,854.00
2023-01-26T03:43:36.000Z,860.00
2023-01-26T03:44:35.945Z,863.00
2023-01-26T03:45:35.858Z,862.00
2023-01-26T03:46:35.781Z,861.00
2023-01-26T03:47:35.693Z,871.00
2023-01-26T03:48:35.650Z,863.00
2023-01-26T03:49:35.542Z,871.00
2023-01-26T03:50:35.495Z,853.00
2023-01-26T03:51:35.421Z,870.00
2023-01-26T03:52:35.360Z,849.00
2023-01-26T03:53:35.262Z,859.00
2023-01-26T03:54:35.206Z,861.00
2023-01-26T03:55:35.137Z,851.00
2023-01-26T03:56:35.058Z,849.00
2023-01-26T03:57:34.961Z,868.00
2023-01-26T03:58:34.887Z,857.00
2023-01-26T03:59:34.815Z,848.00
2023-01-26T04:00:34.771Z,863.00
2023-01-26T04:01:34.656Z,853.00
2023-01-26T04:02:34.594Z,864.00
2023-01-26T04:03:34.513Z,856.00
2023-01-26T04:04:34.404Z,858.00
2023-01-26T04:05:34.335Z,861.00
2023-01-26T04:06:34.271Z,855.00
2023-01-26T04:07:34.175Z,863.00
2023-01-26T04:08:34.057Z,857.00
2023-01-26T04:09:34.000Z,856.00
2023-01-26T04:10:33.912Z,858.00
2023-01-26T04:11:33.807Z,861.00
2023-01-26T04:12:33.748Z,859.00
2023-01-26T04:13:33.607Z,871.00
2023-01-26T04:14:34.513Z,865.00
2023-01-26T04:16:33.321Z,860.00
2023-01-26T04:17:33.170Z,866.00
2023-01-26T04:18:33.104Z,859.00
2023-01-26T04:19:32.969Z,864.00
2023-01-26T04:20:32.868Z,864.00
2023-01-26T04:21:32.716Z,863.00
2023-01-26T04:49:29.998Z,832.00
2023-01-26T04:50:29.916Z,841.00
2023-01-26T04:51:29.793Z,840.00
2023-01-26T04:52:29.756Z,835.00
2023-01-26T04:53:29.682Z,833.00
2023-01-26T05:08:28.559Z,825.00
2023-01-26T05:09:28.540Z,811.00
2023-01-26T06:00:25.260Z,818.00
2023-01-26T06:01:32.304Z,814.00
2023-01-26T06:02:25.111Z,816.00
2023-01-26T06:03:24.975Z,816.00
2023-01-26T06:04:24.926Z,817.00
2023-01-26T06:05:24.806Z,813.00
2023-01-26T06:06:24.699Z,820.00
2023-01-26T06:07:24.579Z,820.00
2023-01-26T06:08:24.471Z,818.00
2023-01-26T06:09:27.234Z,808.00
2023-01-26T06:10:24.281Z,808.00
2023-01-26T06:11:24.153Z,808.00
2023-01-26T06:12:24.057Z,811.00
2023-01-26T06:13:23.971Z,810.00
2023-01-26T06:14:23.871Z,809.00
2023-01-26T06:15:23.756Z,821.00
2023-01-26T06:16:23.708Z,821.00
2023-01-26T06:17:23.554Z,812.00
2023-01-26T06:18:23.407Z,814.00
2023-01-26T06:19:23.351Z,821.00
2023-01-26T06:20:23.235Z,823.00
2023-01-26T06:21:23.137Z,828.00
2023-01-26T06:22:24.315Z,824.00
2023-01-26T06:23:23.004Z,819.00
2023-01-26T06:24:23.403Z,813.00
2023-01-26T06:25:22.691Z,826.00
2023-01-26T06:26:22.577Z,817.00
2023-01-26T06:27:22.458Z,813.00
2023-01-26T06:28:22.376Z,807.00
2023-01-26T06:29:22.278Z,818.00
2023-01-26T06:30:22.170Z,806.00
2023-01-26T06:31:22.247Z,816.00
2023-01-26T06:32:21.958Z,819.00
2023-01-26T06:33:21.858Z,815.00
2023-01-26T06:34:21.746Z,837.00
2023-01-26T06:35:21.629Z,836.00
2023-01-26T06:36:21.531Z,846.00
2023-01-26T06:37:21.414Z,831.00
2023-01-26T06:38:21.305Z,838.00
2023-01-26T06:39:21.228Z,831.00
2023-01-26T06:40:21.136Z,843.00
2023-01-26T06:41:21.093Z,846.00
2023-01-26T06:42:21.035Z,832.00
2023-01-26T06:43:20.971Z,839.00
2023-01-26T06:44:20.958Z,830.00
2023-01-26T06:45:20.890Z,838.00
2023-01-26T06:46:20.963Z,863.00
2023-01-26T06:47:20.780Z,850.00
2023-01-26T06:48:20.684Z,847.00
2023-01-26T06:49:20.647Z,849.00
2023-01-26T06:50:20.637Z,840.00
2023-01-26T06:51:20.551Z,845.00
2023-01-26T06:52:20.502Z,839.00
2023-01-26T06:53:20.418Z,850.00
2023-01-26T06:54:20.360Z,851.00
2023-01-26T06:55:20.311Z,847.00
2023-01-26T06:56:20.263Z,852.00
2023-01-26T06:57:20.225Z,854.00
2023-01-26T06:58:20.285Z,833.00
2023-01-26T06:59:20.126Z,848.00
2023-01-26T07:00:20.044Z,851.00
2023-01-26T07:01:20.012Z,855.00
2023-01-26T07:02:19.994Z,839.00
2023-01-26T07:03:20.279Z,832.00
2023-01-26T07:04:19.794Z,855.00
2023-01-26T07:05:19.754Z,843.00
2023-01-26T07:06:19.742Z,862.00
2023-01-26T07:07:19.615Z,865.00
2023-01-26T07:08:19.577Z,875.00
2023-01-26T07:09:19.786Z,872.00
2023-01-26T07:10:19.483Z,854.00
2023-01-26T07:11:19.413Z,852.00
2023-01-26T07:12:19.404Z,860.00
2023-01-26T07:13:19.304Z,872.00
2023-01-26T07:14:19.232Z,866.00
2023-01-26T07:15:19.162Z,848.00
2023-01-26T07:16:19.166Z,859.00
2023-01-26T07:17:19.032Z,864.00
2023-01-26T07:18:18.998Z,862.00
2023-01-26T07:19:18.930Z,857.00
2023-01-26T07:20:18.858Z,843.00
2023-01-26T07:21:18.885Z,852.00
2023-01-26T07:22:18.750Z,847.00
2023-01-26T07:23:18.682Z,861.00
2023-01-26T07:24:18.699Z,852.00
2023-01-26T07:25:18.563Z,856.00
2023-01-26T09:38:10.286Z,896.00
2023-01-26T09:39:10.220Z,896.00
2023-01-26T09:40:10.538Z,894.00
2023-01-26T09:41:10.111Z,876.00
2023-01-26T09:42:11.106Z,885.00
2023-01-26T09:43:10.007Z,892.00
2023-01-26T09:44:09.938Z,882.00
2023-01-26T09:45:10.207Z,876.00
2023-01-26T09:46:09.806Z,875.00
2023-01-26T09:47:09.728Z,878.00
2023-01-26T09:48:09.707Z,885.00
2023-01-26T09:49:09.647Z,898.00
2023-01-26T09:50:09.806Z,888.00
2023-01-26T09:51:09.480Z,945.00
2023-01-26T09:52:09.419Z,951.00
2023-01-26T09:53:09.372Z,892.00
2023-01-26T09:54:09.315Z,903.00
2023-01-26T09:55:09.509Z,908.00
2023-01-26T09:56:09.178Z,903.00
2023-01-26T09:57:09.122Z,894.00
2023-01-26T09:58:09.069Z,899.00
2023-01-26T09:59:09.010Z,903.00
2023-01-26T10:00:08.949Z,906.00
2023-01-26T10:01:08.912Z,897.00
2023-01-26T10:02:08.854Z,901.00
2023-01-26T10:03:08.757Z,908.00
2023-01-26T10:04:08.738Z,906.00
2023-01-26T10:05:08.938Z,907.00
2023-01-26T10:06:08.560Z,886.00
2023-01-26T10:07:08.512Z,900.00
2023-01-26T10:54:05.625Z,906.00
2023-01-26T10:58:05.368Z,895.00
2023-01-26T10:59:05.357Z,901.00
2023-01-26T11:00:05.251Z,895.00
2023-01-26T11:01:05.411Z,892.00
2023-01-26T11:02:05.205Z,902.00
2023-01-26T11:03:05.156Z,892.00
2023-01-26T11:04:05.084Z,906.00
2023-01-26T11:05:05.027Z,905.00
2023-01-26T11:06:04.928Z,893.00
2023-01-26T11:07:04.852Z,888.00
2023-01-26T11:08:04.809Z,903.00
2023-01-26T11:09:04.733Z,896.00
2023-01-26T11:10:04.701Z,887.00
2023-01-26T11:11:04.626Z,902.00
2023-01-26T11:12:04.992Z,900.00
2023-01-26T11:13:04.489Z,899.00
2023-01-26T11:14:04.437Z,905.00
2023-01-26T11:15:04.368Z,894.00
2023-01-26T11:16:04.354Z,900.00
2023-01-26T11:17:04.287Z,891.00
2023-01-26T11:18:04.178Z,899.00
2023-01-26T11:19:04.160Z,899.00
2023-01-26T11:20:04.055Z,901.00
2023-01-26T11:21:04.038Z,905.00
2023-01-26T11:22:04.388Z,894.00
2023-01-26T11:23:03.899Z,895.00
2023-01-26T11:24:03.857Z,888.00
2023-01-26T11:25:03.772Z,898.00
2023-01-26T11:26:03.695Z,887.00
2023-01-26T11:27:03.629Z,890.00
2023-01-26T11:28:03.574Z,896.00
2023-01-26T11:29:03.497Z,889.00
2023-01-26T11:30:03.441Z,899.00
2023-01-26T11:31:03.491Z,900.00
2023-01-26T11:32:03.312Z,895.00
2023-01-26T11:33:03.258Z,897.00
2023-01-26T11:34:03.271Z,893.00
2023-01-26T11:35:03.126Z,906.00
2023-01-26T11:36:03.028Z,889.00
2023-01-26T11:37:03.439Z,901.00
2023-01-26T11:38:02.925Z,899.00
2023-01-26T11:39:02.923Z,885.00
2023-01-26T11:40:02.796Z,907.00
2023-01-26T11:41:02.728Z,905.00
2023-01-26T11:42:02.875Z,892.00
2023-01-26T11:43:02.634Z,880.00
2023-01-26T11:44:02.549Z,899.00
2023-01-26T11:45:02.474Z,899.00
2023-01-26T11:46:02.484Z,902.00
2023-01-26T11:47:02.363Z,900.00
2023-01-26T11:48:02.292Z,900.00
2023-01-26T11:49:02.236Z,903.00
2023-01-26T11:50:02.199Z,878.00
2023-01-26T11:51:03.671Z,913.00
2023-01-26T11:52:02.078Z,909.00
2023-01-26T11:53:01.926Z,890.00
2023-01-26T11:54:01.801Z,887.00
2023-01-26T11:55:01.732Z,899.00
2023-01-26T11:56:01.619Z,897.00
2023-01-26T11:57:01.505Z,911.00
2023-01-26T11:58:01.406Z,904.00
2023-01-26T11:59:01.297Z,891.00
2023-01-26T12:00:01.206Z,886.00
2023-01-26T12:01:01.185Z,904.00
2023-01-26T12:02:01.020Z,913.00
2023-01-26T12:03:00.880Z,905.00
2023-01-26T12:04:00.765Z,915.00
2023-01-26T12:05:00.680Z,913.00
2023-01-26T12:06:00.563Z,912.00
2023-01-26T12:07:00.470Z,915.00
2023-01-26T12:08:00.365Z,901.00
2023-01-26T12:09:00.284Z,897.00
2023-01-26T12:10:00.180Z,909.00
2023-01-26T12:11:00.070Z,904.00
2023-01-26T12:11:59.943Z,899.00
2023-01-26T12:12:59.806Z,922.00
2023-01-26T12:13:59.724Z,919.00
2023-01-26T12:14:59.634Z,909.00
2023-01-26T12:15:59.566Z,889.00
2023-01-26T12:17:15.665Z,896.00
2023-01-26T12:18:00.340Z,898.00
2023-01-26T12:19:10.368Z,899.00
2023-01-26T12:20:00.164Z,898.00
2023-01-26T12:20:59.014Z,901.00
2023-01-26T12:21:58.906Z,901.00
2023-01-26T12:22:58.846Z,909.00
2023-01-26T12:23:58.706Z,893.00
2023-01-26T12:25:18.020Z,902.00
2023-01-26T12:25:59.531Z,903.00
2023-01-26T12:26:58.431Z,904.00
2023-01-26T12:27:58.289Z,907.00
2023-01-26T12:28:58.191Z,908.00
2023-01-26T12:29:58.054Z,913.00
2023-01-26T12:30:58.075Z,901.00
2023-01-26T12:31:57.943Z,899.00
2023-01-26T12:32:57.763Z,904.00
2023-01-26T12:33:57.663Z,914.00
2023-01-26T12:34:57.547Z,910.00
2023-01-26T12:35:57.421Z,897.00
2023-01-26T12:36:57.324Z,923.00
2023-01-26T12:38:08.701Z,906.00
2023-01-26T12:38:58.121Z,907.00
2023-01-26T12:39:57.035Z,907.00
2023-01-26T12:40:56.909Z,907.00
2023-01-26T12:41:56.810Z,912.00
2023-01-26T12:42:56.693Z,906.00
2023-01-26T12:43:56.595Z,921.00
2023-01-26T12:44:56.489Z,909.00
2023-01-26T12:45:56.411Z,922.00
2023-01-26T12:46:56.303Z,923.00
2023-01-26T12:47:56.202Z,916.00
2023-01-26T12:48:56.147Z,922.00
2023-01-26T12:49:56.174Z,920.00
2023-01-26T12:50:56.013Z,926.00
2023-01-26T12:51:55.967Z,913.00
2023-01-26T12:52:55.899Z,918.00
2023-01-26T12:53:55.853Z,926.00
2023-01-26T12:54:55.764Z,904.00
2023-01-26T12:55:55.700Z,935.00
2023-01-26T12:56:55.621Z,920.00
2023-01-26T12:57:55.562Z,887.00
2023-01-26T12:58:55.532Z,906.00
2023-01-26T12:59:55.415Z,887.00
2023-01-26T13:00:55.374Z,903.00
2023-01-26T13:01:55.422Z,915.00
2023-01-26T13:02:55.231Z,901.00
2023-01-26T13:03:55.183Z,915.00
2023-01-26T13:04:55.151Z,922.00
2023-01-26T13:05:55.053Z,902.00
2023-01-26T13:06:55.004Z,911.00
2023-01-26T13:07:54.949Z,911.00
2023-01-26T13:08:54.926Z,908.00
2023-01-26T13:09:54.835Z,900.00
2023-01-26T13:10:54.759Z,909.00
2023-01-26T13:11:54.699Z,913.00
2023-01-26T13:12:54.670Z,905.00
2023-01-26T13:13:54.615Z,921.00
2023-01-26T13:14:54.556Z,918.00
2023-01-26T13:15:54.580Z,916.00
2023-01-26T13:16:54.475Z,921.00
2023-01-26T13:17:54.399Z,923.00
2023-01-26T13:18:54.351Z,929.00
2023-01-26T13:19:54.285Z,923.00
2023-01-26T13:20:54.193Z,899.00
2023-01-26T13:21:54.157Z,919.00
2023-01-26T13:22:54.112Z,913.00
2023-01-26T13:23:54.068Z,904.00
2023-01-26T13:24:53.974Z,904.00
2023-01-26T13:25:56.582Z,904.00
2023-01-26T13:26:53.802Z,902.00
2023-01-26T13:27:53.727Z,905.00
2023-01-26T13:28:53.573Z,917.00
2023-01-26T13:29:53.495Z,916.00
2023-01-26T13:30:53.525Z,929.00
2023-01-26T13:31:53.315Z,920.00
2023-01-26T13:32:53.228Z,924.00
2023-01-26T13:33:53.088Z,926.00
2023-01-26T13:34:52.996Z,932.00
2023-01-26T13:35:52.898Z,957.00
2023-01-26T13:36:52.814Z,972.00
2023-01-26T13:37:52.695Z,957.00
2023-01-26T13:38:52.563Z,969.00
2023-01-26T13:39:52.508Z,986.00
2023-01-26T13:40:52.388Z,995.00
2023-01-26T13:41:52.286Z,1019.00
2023-01-26T13:42:52.188Z,1011.00
2023-01-26T13:43:52.090Z,1017.00
2023-01-26T13:44:51.975Z,978.00
2023-01-26T13:45:52.455Z,976.00
2023-01-26T13:46:51.840Z,1055.00
2023-01-26T13:47:51.701Z,1038.00
2023-01-26T13:48:51.561Z,1046.00
2023-01-26T13:49:51.515Z,1333.00
2023-01-26T13:50:51.386Z,1276.00
2023-01-26T13:51:51.296Z,1210.00
2023-01-26T13:52:51.212Z,1114.00
2023-01-26T13:53:51.084Z,1067.00
2023-01-26T13:54:50.999Z,680.00
2023-01-26T13:55:50.893Z,626.00
2023-01-26T13:56:50.775Z,634.00
2023-01-26T13:57:50.686Z,621.00
2023-01-26T13:58:50.616Z,602.00
2023-01-26T13:59:50.517Z,606.00
2023-01-26T14:00:50.400Z,615.00
2023-01-26T14:01:50.408Z,628.00
2023-01-26T14:02:50.548Z,643.00
2023-01-26T14:03:50.082Z,634.00
2023-01-26T14:04:49.973Z,648.00
2023-01-26T14:05:49.889Z,635.00
2023-01-26T14:06:49.778Z,620.00
2023-01-26T14:07:49.761Z,634.00
2023-01-26T14:08:49.593Z,627.00
2023-01-26T14:09:49.467Z,627.00
2023-01-26T14:10:49.398Z,638.00
2023-01-26T14:11:49.311Z,636.00
2023-01-26T14:12:49.170Z,645.00
2023-01-26T14:13:49.120Z,642.00
2023-01-26T14:14:49.036Z,645.00
2023-01-26T14:15:48.921Z,642.00
2023-01-26T14:16:48.797Z,650.00
2023-01-26T14:17:48.699Z,652.00
2023-01-26T14:18:48.597Z,655.00
2023-01-26T14:19:48.556Z,661.00
2023-01-26T14:26:48.141Z,680.00
2023-01-26T14:27:48.097Z,689.00
2023-01-26T14:28:48.019Z,740.00
2023-01-26T14:29:48.007Z,747.00
2023-01-26T14:30:47.950Z,731.00
2023-01-26T14:31:47.876Z,733.00
2023-01-26T14:32:47.814Z,740.00
2023-01-26T14:33:47.753Z,727.00
2023-01-26T14:34:47.745Z,746.00
2023-01-26T14:35:47.664Z,744.00
2023-01-26T14:36:47.635Z,734.00
2023-01-26T14:37:47.582Z,801.00
2023-01-26T14:38:47.509Z,792.00
2023-01-26T14:39:47.462Z,815.00
2023-01-26T14:40:47.397Z,802.00
2023-01-26T14:41:47.372Z,789.00
2023-01-26T14:42:47.305Z,796.00
2023-01-26T14:43:47.243Z,792.00
2023-01-26T14:44:47.192Z,797.00
2023-01-26T14:45:47.147Z,801.00
2023-01-26T14:46:47.089Z,805.00
2023-01-26T14:47:47.020Z,804.00
2023-01-26T14:48:46.992Z,805.00
2023-01-26T14:49:46.913Z,805.00
2023-01-26T14:50:46.864Z,803.00
2023-01-26T14:51:46.813Z,787.00
2023-01-26T14:52:46.782Z,790.00
2023-01-26T14:53:46.687Z,788.00
2023-01-26T14:54:46.635Z,799.00
2023-01-26T14:55:46.581Z,789.00
2023-01-26T14:56:46.497Z,793.00
2023-01-26T14:57:46.463Z,797.00
2023-01-26T14:58:46.405Z,792.00
2023-01-26T14:59:46.330Z,780.00
2023-01-26T15:00:46.320Z,792.00
2023-01-26T15:01:46.244Z,788.00
2023-01-26T15:02:46.183Z,781.00
2023-01-26T15:03:46.122Z,786.00
2023-01-26T15:04:46.085Z,784.00
2023-01-26T15:05:46.028Z,781.00
2023-01-26T15:06:45.959Z,774.00
2023-01-26T15:07:45.916Z,784.00
2023-01-26T15:08:45.844Z,782.00
2023-01-26T15:09:45.765Z,782.00
2023-01-26T15:10:45.724Z,799.00
2023-01-26T15:11:45.686Z,774.00
2023-01-26T15:12:45.641Z,778.00
2023-01-26T15:13:45.601Z,778.00
2023-01-26T15:14:45.493Z,794.00
2023-01-26T15:15:45.484Z,764.00
2023-01-26T15:16:45.395Z,777.00
2023-01-26T15:17:45.348Z,779.00
2023-01-26T15:18:45.252Z,782.00
2023-01-26T15:19:45.220Z,756.00
2023-01-26T15:20:45.184Z,773.00
2023-01-26T15:21:45.118Z,760.00
2023-01-26T15:22:45.501Z,766.00
2023-01-26T15:23:45.003Z,788.00
2023-01-26T15:24:44.938Z,764.00
2023-01-26T15:25:44.861Z,775.00
2023-01-26T15:26:44.853Z,789.00
2023-01-26T15:27:44.814Z,790.00
2023-01-26T15:28:44.762Z,775.00
2023-01-26T15:29:44.696Z,785.00
2023-01-26T15:30:44.646Z,784.00
2023-01-26T15:31:44.580Z,778.00
2023-01-26T15:32:44.565Z,780.00
2023-01-26T15:33:44.444Z,772.00
2023-01-26T15:34:44.398Z,785.00
2023-01-26T15:35:44.367Z,776.00
2023-01-26T15:36:44.291Z,793.00
2023-01-26T15:37:44.276Z,773.00
2023-01-26T15:38:44.521Z,769.00
2023-01-26T15:39:44.114Z,782.00
2023-01-26T15:40:44.077Z,761.00
2023-01-26T15:41:44.004Z,767.00
2023-01-26T15:42:43.993Z,782.00
2023-01-26T15:43:43.893Z,782.00
2023-01-26T15:44:43.856Z,768.00
2023-01-26T15:45:43.826Z,782.00
2023-01-26T15:46:43.768Z,774.00
2023-01-26T15:47:43.679Z,777.00
2023-01-26T15:48:43.628Z,776.00
2023-01-26T15:49:43.548Z,784.00
2023-01-26T15:50:43.534Z,777.00
2023-01-26T15:51:43.469Z,778.00
2023-01-26T15:52:43.447Z,759.00
2023-01-26T15:53:43.345Z,761.00
2023-01-26T15:54:43.285Z,754.00
2023-01-26T15:55:43.259Z,772.00
2023-01-26T15:56:43.232Z,757.00
2023-01-26T15:57:43.166Z,773.00
2023-01-26T15:58:43.122Z,766.00
2023-01-26T15:59:43.056Z,753.00
2023-01-26T16:00:43.020Z,759.00
2023-01-26T16:01:43.016Z,763.00
2023-01-26T16:02:42.864Z,753.00
2023-01-26T16:03:42.851Z,751.00
2023-01-26T16:04:42.811Z,761.00
2023-01-26T16:05:42.713Z,736.00
2023-01-26T16:06:42.656Z,754.00
2023-01-26T16:07:42.645Z,759.00
2023-01-26T16:08:42.572Z,747.00
2023-01-26T16:09:42.495Z,760.00
2023-01-26T16:10:42.457Z,726.00
2023-01-26T16:11:42.448Z,736.00
2023-01-26T16:12:42.358Z,740.00
2023-01-26T16:13:44.382Z,730.00
2023-01-26T16:14:42.198Z,730.00
2023-01-26T16:15:42.166Z,731.00
2023-01-26T16:16:42.067Z,727.00
2023-01-26T16:17:41.865Z,729.00
2023-01-26T16:18:41.789Z,728.00
2023-01-26T16:19:41.693Z,734.00
2023-01-26T16:20:41.602Z,725.00
2023-01-26T16:21:41.506Z,729.00
2023-01-26T16:22:41.402Z,721.00
2023-01-26T16:23:41.289Z,727.00
2023-01-26T16:24:41.214Z,728.00
2023-01-26T16:25:41.123Z,735.00
2023-01-26T16:26:41.027Z,746.00
2023-01-26T16:27:40.918Z,725.00
2023-01-26T16:28:40.839Z,721.00
2023-01-26T16:29:40.748Z,733.00
2023-01-26T16:30:40.663Z,734.00
2023-01-26T16:31:40.556Z,733.00
2023-01-26T16:32:40.436Z,730.00
2023-01-26T16:33:40.338Z,729.00
2023-01-26T16:34:40.336Z,719.00
2023-01-26T16:35:40.214Z,724.00
2023-01-26T16:36:40.048Z,729.00
2023-01-26T16:37:42.512Z,720.00
2023-01-26T16:38:40.122Z,724.00
2023-01-26T16:39:40.068Z,725.00
2023-01-26T16:40:40.030Z,725.00
2023-01-26T16:41:39.989Z,737.00
2023-01-26T16:42:39.960Z,737.00
2023-01-26T16:43:39.906Z,725.00
2023-01-26T16:44:39.848Z,725.00
2023-01-26T16:45:39.850Z,710.00
2023-01-26T16:46:39.772Z,719.00
2023-01-26T16:47:39.724Z,734.00
2023-01-26T16:48:39.661Z,699.00
2023-01-26T16:49:39.659Z,713.00
2023-01-26T16:50:39.596Z,723.00
2023-01-26T16:51:39.619Z,703.00
2023-01-26T16:52:39.484Z,720.00
2023-01-26T16:53:39.478Z,719.00
2023-01-26T16:54:39.440Z,704.00
2023-01-26T16:55:39.380Z,721.00
2023-01-26T16:56:39.377Z,705.00
2023-01-26T16:57:39.334Z,716.00
2023-01-26T16:58:39.285Z,718.00
2023-01-26T16:59:39.210Z,724.00
2023-01-26T17:00:39.162Z,725.00
2023-01-26T17:01:39.117Z,721.00
2023-01-26T17:02:39.106Z,727.00
2023-01-26T17:03:39.052Z,724.00
2023-01-26T17:04:38.996Z,721.00
2023-01-26T17:05:38.960Z,730.00
2023-01-26T17:06:38.880Z,721.00
2023-01-26T17:07:38.871Z,713.00
2023-01-26T17:08:38.815Z,721.00
2023-01-26T17:09:38.787Z,710.00
2023-01-26T17:10:43.415Z,706.00
2023-01-26T17:11:39.623Z,707.00
2023-01-26T17:12:38.538Z,710.00
2023-01-26T17:13:38.438Z,711.00
2023-01-26T17:14:38.338Z,707.00
2023-01-26T17:15:38.253Z,715.00